Ausable Chasm, NY

8:50 AM EDT on September 22, 2014 (GMT -0400)
RAWS SCHUYLER FALLS NY US | Change Station
CLOSE
Current Station
Personal Weather Station
Location: Peru, NY
Elevation: 649 ft
Nearby Weather Stations

Elev 649 ft 44.60 °N, 73.60 °W | Updated 49 minutes ago

Overcast
Overcast
49 °F
Feels Like 48 °F
N
4
Wind Variable Wind from SSW
Gusts 15.0 mph

Today
High -- | Low -- °F
--% Chance of Precip.
Yesterday
High -- | Low -- °F
Precip. -- in
6:41 AM 6:51 PM
Waning Crescent, 3% visible
Pressure 29.70 in
Visibility 10.0 miles
Clouds Mostly Cloudy 3700 ft
Overcast 7000 ft
Windchill 48 °F
Dew Point 43 °F
Humidity 79%
Rainfall 0.17 in
Snow Depth Not available.
UV 0 out of 12
Pollen 1.20 out of 12
Air Quality Not available.
Flu Activity Not available.
METAR KPBG 221153Z AUTO 27007G17KT 10SM BKN037 OVC070 11/06 A2970 RMK AO2 SLP058 60000 70009 T01060061 10172 20106 53048

More Conditions Fewer Conditions

Pressure 29.70 in
Visibility 10.0 miles
Clouds Mostly Cloudy 3700 ft
Overcast 7000 ft
Windchill 48 °F
Dew Point 43 °F
Humidity 79%
Rainfall 0.17 in
Snow Depth Not available.
UV 0 out of 12
Pollen 1.20 out of 12
Air Quality Not available.
Flu Activity Not available.
METAR KPBG 221153Z AUTO 27007G17KT 10SM BKN037 OVC070 11/06 A2970 RMK AO2 SLP058 60000 70009 T01060061 10172 20106 53048

More Conditions Fewer Conditions

10-Day Weather Forecast

Almanac

Astronomy

Sep. 22, 2014 Rise Set
Actual Time 6:41 AM EDT 6:51 PM EDT
Civil Twilight 6:12 AM EDT 7:20 PM EDT
Nautical Twilight 5:37 AM EDT 7:54 PM EDT
Astronomical Twilight 5:02 AM EDT 8:29 PM EDT
Moon 5:04 AM EDT 5:59 PM EDT
Length of Visible Light 13h 08m
Length of Day
12h 10m
Tomorrow will be 3m 3s shorter.
Waning Crescent, 3% of the Moon is Illuminated
Today
Waning Crescent
Sep 24
New
Oct 1
First Quarter
Oct 8
Full
Oct 15
Last Quarter

Today's Extremes

State Highs State Lows

Community

WunderPhotos

Upload Photos

1,755,419 photos uploaded!

Nearby

Air Quality

  Air Quality AQ Index Pollutant
Monday Good
OZONE
Monday Good
PM2.5

Snow Depth

Station Depth Elevation
No new snow has been reported.

Earthquake Activity

City Distance Mag. Time & Date
No recent earthquake activity has been reported nearby.
Minimum magnitude displayed is 2.5.

Coastal Water Temperatures

Place Temperature
No Stations Reporting

Nearby Weather Stations